River Kern, California
Current Conditions -  °F | °C
As of 2:56 AM on Thursday 23 Oct 2014 (Local Time) from KNID Reporting Station
Clear Clear  
Wind Chill: 57°   Ceiling: Unl
Heat Index: 57°   Visibility: 10mi
Dew Point: 28°   Wind: 0mph
Humidity: 33%   Direction: NA
Pressure: 30.04"   Gusts: NA
Location:  35.8452°N, 118.355°W
Report Text: KNID 230956Z AUTO 00000KT 10SM CLR 14/M02 A3004 RMK AO2 SLP158 T01391022 $
Loading
Personal Weather Stations






























Interactive Weather Map
Tropical Storm Tracking
New forecast layout! Learn more

10-Day Weather Forecast

Advertisements
Track Severe Weather on mobile